createdAt,value
2023-04-19T00:00:22.529Z,36.17
2023-04-19T00:02:51.666Z,52.88
2023-04-19T00:05:20.642Z,80.63
2023-04-19T00:07:48.824Z,53.10
2023-04-19T00:10:17.962Z,49.53
2023-04-19T00:12:47.112Z,38.70
2023-04-19T00:15:15.375Z,35.50
2023-04-19T00:17:43.442Z,37.88
2023-04-19T00:20:51.959Z,34.35
2023-04-19T00:23:25.992Z,32.90
2023-04-19T00:25:55.481Z,38.30
2023-04-19T00:28:23.879Z,48.17
2023-04-19T00:30:51.968Z,50.60
2023-04-19T00:33:20.815Z,50.58
2023-04-19T00:35:49.747Z,40.58
2023-04-19T00:38:19.453Z,39.60
2023-04-19T00:40:47.628Z,55.67
2023-04-19T00:43:19.798Z,54.97
2023-04-19T00:45:48.264Z,53.45
2023-04-19T00:48:16.794Z,62.15
2023-04-19T00:50:47.505Z,69.95
2023-04-19T00:53:16.254Z,54.00
2023-04-19T00:55:47.807Z,54.63
2023-04-19T00:58:16.320Z,49.70
2023-04-19T01:00:44.603Z,42.33
2023-04-19T01:03:13.940Z,35.65
2023-04-19T01:05:42.378Z,30.52
2023-04-19T01:08:15.075Z,40.97
2023-04-19T01:10:43.042Z,43.35
2023-04-19T01:13:12.717Z,40.47
2023-04-19T01:15:40.579Z,36.17
2023-04-19T01:18:11.892Z,48.25
2023-04-19T01:20:43.927Z,41.45
2023-04-19T01:23:12.756Z,46.50
2023-04-19T01:25:41.413Z,45.90
2023-04-19T01:28:10.511Z,50.92
2023-04-19T01:30:38.501Z,52.95
2023-04-19T01:33:07.831Z,43.92
2023-04-19T01:35:37.565Z,54.10
2023-04-19T01:38:05.629Z,58.30
2023-04-19T01:40:33.714Z,55.60
2023-04-19T01:43:01.652Z,59.15
2023-04-19T01:45:30.557Z,60.63
2023-04-19T01:47:59.639Z,67.88
2023-04-19T01:50:35.573Z,62.25
2023-04-19T01:53:05.569Z,49.55
2023-04-19T01:55:34.613Z,52.40
2023-04-19T01:58:03.579Z,50.30
2023-04-19T02:00:34.083Z,39.85
2023-04-19T02:03:05.752Z,42.30
2023-04-19T02:05:34.321Z,38.60
2023-04-19T02:08:02.577Z,34.53
2023-04-19T02:10:32.126Z,30.38
2023-04-19T02:13:01.477Z,33.50
2023-04-19T02:15:29.576Z,39.97
2023-04-19T02:17:57.667Z,36.25
2023-04-19T02:20:25.750Z,36.75
2023-04-19T02:22:53.660Z,40.42
2023-04-19T02:25:29.500Z,38.33
2023-04-19T02:27:58.696Z,32.08
2023-04-19T02:30:26.764Z,36.38
2023-04-19T02:32:55.264Z,38.13
2023-04-19T02:35:23.313Z,33.40
2023-04-19T02:37:51.238Z,44.78
2023-04-19T02:40:19.658Z,31.35
2023-04-19T02:42:47.540Z,46.75
2023-04-19T02:45:15.493Z,29.17
2023-04-19T02:47:43.556Z,33.47
2023-04-19T02:50:12.097Z,29.77
2023-04-19T02:52:48.038Z,28.15
2023-04-19T02:55:16.665Z,29.23
2023-04-19T02:57:47.688Z,33.85
2023-04-19T03:00:17.188Z,33.80
2023-04-19T03:02:56.486Z,33.72
2023-04-19T03:05:24.650Z,34.45
2023-04-19T03:07:54.515Z,22.33
2023-04-19T03:10:22.527Z,46.75
2023-04-19T03:12:51.440Z,45.00
2023-04-19T03:15:20.754Z,30.80
2023-04-19T03:17:49.698Z,33.92
2023-04-19T03:20:19.257Z,33.40
2023-04-19T03:22:47.350Z,30.88
2023-04-19T03:25:18.022Z,24.35
2023-04-19T03:27:53.780Z,37.40
2023-04-19T03:30:36.846Z,49.20
2023-04-19T03:33:06.516Z,49.03
2023-04-19T03:35:34.785Z,46.25
2023-04-19T03:38:12.621Z,33.55
2023-04-19T03:40:40.813Z,39.88
2023-04-19T03:43:11.903Z,40.00
2023-04-19T03:45:40.549Z,41.90
2023-04-19T03:48:10.987Z,31.10
2023-04-19T03:50:41.923Z,39.97
2023-04-19T03:53:13.542Z,44.78
2023-04-19T03:55:41.643Z,46.38
2023-04-19T03:58:10.203Z,42.10
2023-04-19T04:00:50.980Z,45.33
2023-04-19T04:03:20.781Z,49.83
2023-04-19T04:05:49.239Z,48.40
2023-04-19T04:08:17.336Z,48.55
2023-04-19T04:10:45.270Z,41.88
2023-04-19T04:13:14.626Z,55.38
2023-04-19T04:15:51.683Z,51.95
2023-04-19T04:18:19.683Z,37.83
2023-04-19T04:20:48.332Z,43.47
2023-04-19T04:23:16.702Z,47.65
2023-04-19T04:25:59.429Z,45.75
2023-04-19T04:28:35.090Z,36.97
2023-04-19T04:31:04.817Z,44.70
2023-04-19T04:33:43.086Z,36.88
2023-04-19T04:36:20.814Z,42.85
2023-04-19T04:41:22.636Z,30.35
2023-04-19T04:44:04.647Z,40.78
2023-04-19T04:46:40.500Z,37.10
2023-04-19T04:49:10.743Z,42.00
2023-04-19T04:51:43.854Z,39.28
2023-04-19T04:54:12.401Z,48.90
2023-04-19T04:56:40.990Z,34.95
2023-04-19T04:59:09.914Z,37.15
2023-04-19T05:01:41.234Z,46.67
2023-04-19T05:04:12.900Z,44.20
2023-04-19T05:06:41.552Z,39.35
2023-04-19T05:09:11.935Z,42.30
2023-04-19T05:11:40.648Z,42.85
2023-04-19T05:14:08.720Z,43.65
2023-04-19T05:16:36.966Z,46.60
2023-04-19T05:19:06.176Z,43.55
2023-04-19T05:21:39.565Z,44.85
2023-04-19T05:24:10.253Z,49.30
2023-04-19T05:26:38.793Z,50.88
2023-04-19T05:29:07.985Z,44.83
2023-04-19T05:31:47.113Z,35.17
2023-04-19T05:34:36.973Z,49.20
2023-04-19T05:37:05.772Z,49.13
2023-04-19T05:39:34.078Z,47.88
2023-04-19T05:42:02.070Z,46.00
2023-04-19T05:44:30.148Z,50.13
2023-04-19T05:46:59.270Z,47.15
2023-04-19T05:49:53.163Z,46.13
2023-04-19T05:52:31.439Z,44.15
2023-04-19T05:55:01.633Z,44.15
2023-04-19T05:57:30.721Z,49.20
2023-04-19T06:02:47.858Z,48.78
2023-04-19T06:05:16.220Z,46.33
2023-04-19T06:07:54.541Z,44.85
2023-04-19T06:10:23.900Z,51.60
2023-04-19T06:12:52.001Z,49.63
2023-04-19T06:15:20.012Z,36.33
2023-04-19T06:17:48.271Z,55.00
2023-04-19T06:20:16.349Z,43.10
2023-04-19T06:22:45.512Z,46.95
2023-04-19T06:25:13.509Z,39.28
2023-04-19T06:27:41.660Z,47.35
2023-04-19T06:30:10.049Z,48.03
2023-04-19T06:32:38.274Z,44.05
2023-04-19T06:35:06.922Z,58.05
2023-04-19T06:37:35.914Z,45.67
2023-04-19T06:40:07.753Z,41.08
2023-04-19T06:42:38.044Z,41.13
2023-04-19T06:45:10.786Z,48.30
2023-04-19T06:47:38.845Z,44.25
2023-04-19T06:50:07.552Z,45.85
2023-04-19T06:52:42.826Z,45.63
2023-04-19T06:55:11.238Z,38.83
2023-04-19T06:58:44.587Z,34.22
2023-04-19T07:01:13.336Z,45.05
2023-04-19T07:03:42.115Z,43.85
2023-04-19T07:06:11.760Z,41.03
2023-04-19T07:11:16.621Z,39.90
2023-04-19T07:13:50.176Z,38.10
2023-04-19T07:16:18.428Z,54.50
2023-04-19T07:18:46.398Z,41.38
2023-04-19T07:21:14.711Z,42.33
2023-04-19T07:23:43.021Z,43.33
2023-04-19T07:26:18.199Z,33.75
2023-04-19T07:28:46.345Z,38.80
2023-04-19T07:31:20.368Z,40.83
2023-04-19T07:33:48.540Z,37.72
2023-04-19T07:36:19.051Z,29.75
2023-04-19T07:38:48.793Z,51.03
2023-04-19T07:41:18.711Z,58.38
2023-04-19T07:43:56.941Z,41.63
2023-04-19T07:46:29.025Z,32.13
2023-04-19T07:54:31.618Z,47.65
2023-04-19T07:58:06.567Z,44.65
2023-04-19T08:00:41.070Z,46.60
2023-04-19T08:03:16.951Z,32.58
2023-04-19T08:05:48.109Z,35.50
2023-04-19T08:08:17.198Z,23.38
2023-04-19T08:10:45.347Z,41.92
2023-04-19T08:13:21.031Z,51.17
2023-04-19T08:16:24.565Z,50.28
2023-04-19T08:18:39.149Z,52.38
2023-04-19T08:21:14.900Z,58.13
2023-04-19T08:23:48.513Z,45.60
2023-04-19T08:26:17.600Z,39.38
2023-04-19T08:28:46.528Z,47.35
2023-04-19T08:31:16.125Z,40.85
2023-04-19T08:33:44.216Z,34.45
2023-04-19T08:36:15.279Z,39.28
2023-04-19T08:39:05.467Z,30.73
2023-04-19T08:41:38.337Z,41.22
2023-04-19T08:44:08.659Z,29.85
2023-04-19T08:46:37.062Z,37.78
2023-04-19T08:49:06.675Z,39.30
2023-04-19T08:51:43.096Z,42.55
2023-04-19T08:54:12.048Z,45.63
2023-04-19T08:57:20.691Z,33.90
2023-04-19T09:00:21.401Z,26.13
2023-04-19T09:02:51.699Z,24.10
2023-04-19T09:05:21.390Z,37.67
2023-04-19T09:07:53.704Z,47.53
2023-04-19T09:10:24.611Z,35.95
2023-04-19T09:13:07.332Z,31.73
2023-04-19T09:15:52.882Z,45.28
2023-04-19T09:18:21.146Z,36.67
2023-04-19T09:20:51.338Z,34.63
2023-04-19T09:23:19.765Z,39.42
2023-04-19T09:28:29.400Z,42.90
2023-04-19T09:31:03.492Z,30.65
2023-04-19T09:33:39.655Z,28.65
2023-04-19T09:36:08.623Z,33.67
2023-04-19T09:38:49.964Z,34.30
2023-04-19T09:41:18.125Z,31.50
2023-04-19T09:44:05.604Z,22.90
2023-04-19T09:46:36.769Z,33.97
2023-04-19T09:49:36.906Z,28.25
2023-04-19T09:52:14.640Z,39.25
2023-04-19T09:54:42.707Z,33.13
2023-04-19T09:57:10.749Z,32.35
2023-04-19T09:59:38.691Z,31.65
2023-04-19T10:02:07.484Z,28.95
2023-04-19T10:04:54.690Z,30.48
2023-04-19T10:07:31.098Z,39.95
2023-04-19T10:10:11.558Z,38.70
2023-04-19T10:13:07.557Z,20.33
2023-04-19T10:15:47.244Z,30.05
2023-04-19T10:18:20.620Z,28.80
2023-04-19T10:21:01.169Z,29.52
2023-04-19T10:23:29.568Z,30.23
2023-04-19T10:25:58.677Z,37.75
2023-04-19T10:28:31.185Z,32.70
2023-04-19T10:31:25.279Z,33.47
2023-04-19T10:33:55.520Z,30.20
2023-04-19T10:36:28.110Z,22.80
2023-04-19T10:38:56.266Z,37.58
2023-04-19T10:41:25.050Z,33.15
2023-04-19T10:43:56.199Z,35.65
2023-04-19T10:46:29.754Z,40.53
2023-04-19T10:49:02.221Z,41.15
2023-04-19T10:51:36.681Z,27.67
2023-04-19T10:54:09.089Z,31.58
2023-04-19T10:56:42.484Z,31.00
2023-04-19T10:59:21.588Z,32.65
2023-04-19T11:02:01.293Z,28.98
2023-04-19T11:04:36.004Z,30.48
2023-04-19T11:07:05.670Z,28.80
2023-04-19T11:09:42.593Z,33.88
2023-04-19T11:12:20.744Z,33.72
2023-04-19T11:14:57.670Z,35.63
2023-04-19T11:17:28.482Z,38.13
2023-04-19T11:20:13.594Z,22.10
2023-04-19T11:22:43.313Z,41.50
2023-04-19T11:25:19.627Z,33.35
2023-04-19T11:27:51.082Z,39.63
2023-04-19T11:30:23.491Z,36.20
2023-04-19T11:32:56.296Z,22.35
2023-04-19T11:35:28.827Z,21.02
2023-04-19T11:37:59.036Z,31.35
2023-04-19T11:40:27.375Z,31.83
2023-04-19T11:43:01.882Z,45.55
2023-04-19T11:45:35.430Z,31.15
2023-04-19T11:48:05.627Z,31.58
2023-04-19T11:50:41.929Z,26.92
2023-04-19T11:53:13.633Z,24.10
2023-04-19T11:55:46.701Z,29.67
2023-04-19T11:58:32.547Z,29.92
2023-04-19T12:01:08.956Z,33.57
2023-04-19T12:03:50.704Z,39.95
2023-04-19T12:06:29.308Z,33.65
2023-04-19T12:08:57.354Z,36.45
2023-04-19T12:11:26.971Z,25.73
2023-04-19T12:14:18.761Z,38.60
2023-04-19T12:16:47.214Z,35.20
2023-04-19T12:19:20.830Z,29.83
2023-04-19T12:21:50.415Z,32.53
2023-04-19T12:24:18.813Z,25.50
2023-04-19T12:26:56.254Z,31.02
2023-04-19T12:29:25.277Z,26.45
2023-04-19T12:31:53.593Z,26.70
2023-04-19T12:34:24.391Z,35.65
2023-04-19T12:36:53.242Z,28.98
2023-04-19T12:39:21.541Z,28.25
2023-04-19T12:41:49.881Z,21.67
2023-04-19T12:44:17.960Z,28.42
2023-04-19T12:46:45.950Z,25.25
2023-04-19T12:49:14.562Z,21.38
2023-04-19T12:51:42.847Z,26.42
2023-04-19T12:54:11.013Z,24.33
2023-04-19T12:56:39.271Z,26.83
2023-04-19T12:59:07.385Z,20.98
2023-04-19T13:01:36.485Z,26.73
2023-04-19T13:04:07.860Z,31.25
2023-04-19T13:06:39.527Z,29.52
2023-04-19T13:11:40.814Z,25.85
2023-04-19T13:14:09.254Z,36.92
2023-04-19T13:16:38.953Z,22.08
2023-04-19T13:19:06.973Z,24.10
2023-04-19T13:21:35.691Z,26.42
2023-04-19T13:24:03.461Z,19.90
2023-04-19T13:26:31.637Z,24.15
2023-04-19T13:28:59.961Z,21.08
2023-04-19T13:31:28.076Z,19.70
2023-04-19T13:33:56.858Z,19.80
2023-04-19T13:36:25.344Z,16.70
2023-04-19T13:38:54.450Z,22.83
2023-04-19T13:41:23.562Z,21.90
2023-04-19T13:43:51.635Z,17.63
2023-04-19T13:46:19.693Z,27.65
2023-04-19T13:48:47.530Z,19.70
2023-04-19T13:51:16.353Z,21.67
2023-04-19T13:53:44.208Z,25.92
2023-04-19T13:56:13.605Z,21.10
2023-04-19T13:58:41.742Z,25.50
2023-04-19T14:01:29.762Z,23.52
2023-04-19T14:03:58.037Z,23.48
2023-04-19T14:06:26.714Z,26.75
2023-04-19T14:08:55.368Z,27.52
2023-04-19T14:11:25.244Z,20.13
2023-04-19T14:13:53.618Z,29.52
2023-04-19T14:16:25.484Z,29.05
2023-04-19T14:18:53.648Z,20.13
2023-04-19T14:21:21.672Z,28.27
2023-04-19T14:23:49.748Z,20.58
2023-04-19T14:26:17.874Z,16.92
2023-04-19T14:28:45.802Z,24.45
2023-04-19T14:31:14.059Z,23.05
2023-04-19T14:33:42.636Z,21.85
2023-04-19T14:36:10.991Z,23.92
2023-04-19T14:38:41.919Z,21.55
2023-04-19T14:41:09.944Z,23.38
2023-04-19T14:43:38.016Z,30.67
2023-04-19T14:46:07.663Z,24.63
2023-04-19T14:48:35.958Z,20.77
2023-04-19T14:51:04.100Z,26.30
2023-04-19T14:53:34.012Z,23.65
2023-04-19T14:56:05.952Z,22.92
2023-04-19T14:58:33.931Z,29.83
2023-04-19T15:01:13.614Z,23.85
2023-04-19T15:03:42.958Z,26.13
2023-04-19T15:06:11.191Z,23.90
2023-04-19T15:08:39.284Z,26.65
2023-04-19T15:11:07.804Z,25.65
2023-04-19T15:13:36.610Z,24.77
2023-04-19T15:16:07.709Z,19.65
2023-04-19T15:18:36.089Z,42.65
2023-04-19T15:21:04.965Z,35.60
2023-04-19T15:23:55.447Z,19.92
2023-04-19T15:26:24.706Z,26.42
2023-04-19T15:28:54.489Z,32.35
2023-04-19T15:31:42.531Z,37.05
2023-04-19T15:34:12.128Z,35.78
2023-04-19T15:36:41.085Z,31.17
2023-04-19T15:39:10.778Z,33.80
2023-04-19T15:41:38.662Z,32.13
2023-04-19T15:44:08.546Z,30.08
2023-04-19T15:46:37.120Z,34.42
2023-04-19T15:49:06.194Z,40.13
2023-04-19T15:51:34.261Z,35.47
2023-04-19T15:54:02.317Z,31.42
2023-04-19T15:56:31.417Z,27.05
2023-04-19T15:58:59.785Z,32.10
2023-04-19T16:01:30.032Z,31.90
2023-04-19T16:03:58.154Z,26.63
2023-04-19T16:06:27.537Z,39.38
2023-04-19T16:08:55.905Z,40.28
2023-04-19T16:11:24.077Z,38.90
2023-04-19T16:14:11.926Z,41.42
2023-04-19T16:16:39.997Z,39.65
2023-04-19T16:19:17.320Z,34.58
2023-04-19T16:21:45.730Z,35.30
2023-04-19T16:24:13.656Z,34.92
2023-04-19T16:26:43.100Z,35.17
2023-04-19T16:29:12.467Z,35.35
2023-04-19T16:31:55.014Z,38.55
2023-04-19T16:34:25.561Z,40.33
2023-04-19T16:36:57.252Z,43.47
2023-04-19T16:39:25.829Z,45.28
2023-04-19T16:41:53.694Z,44.38
2023-04-19T16:44:23.771Z,56.75
2023-04-19T16:46:53.204Z,46.95
2023-04-19T16:49:28.549Z,47.60
2023-04-19T16:51:59.802Z,44.80
2023-04-19T16:54:28.149Z,31.10
2023-04-19T16:56:56.069Z,38.40
2023-04-19T16:59:27.680Z,42.88
2023-04-19T17:02:01.363Z,53.78
2023-04-19T17:04:34.889Z,60.42
2023-04-19T17:07:03.129Z,55.53
2023-04-19T17:09:55.063Z,53.08
2023-04-19T17:12:23.643Z,52.35
2023-04-19T17:14:53.782Z,47.90
2023-04-19T17:17:21.769Z,37.55
2023-04-19T17:19:49.708Z,35.08
2023-04-19T17:22:17.713Z,26.23
2023-04-19T17:24:45.987Z,23.15
2023-04-19T17:27:14.053Z,28.88
2023-04-19T17:29:42.375Z,31.17
2023-04-19T17:32:10.395Z,28.52
2023-04-19T17:34:40.556Z,29.80
2023-04-19T17:43:35.549Z,22.60
2023-04-19T17:50:47.033Z,35.63
2023-04-19T17:54:27.038Z,33.97
2023-04-19T17:56:55.150Z,28.08
2023-04-19T17:59:57.313Z,23.55
2023-04-19T18:03:36.363Z,21.45
2023-04-19T18:06:47.113Z,27.48
2023-04-19T18:13:49.159Z,39.33
2023-04-19T18:16:27.836Z,28.25
2023-04-19T18:19:03.538Z,49.25
2023-04-19T18:21:35.939Z,43.67
2023-04-19T18:24:04.990Z,56.45
2023-04-19T18:26:42.989Z,72.05
2023-04-19T18:29:13.298Z,143.50
2023-04-19T18:32:15.296Z,25.20
2023-04-19T18:34:44.200Z,26.65
2023-04-19T18:37:45.433Z,23.05
2023-04-19T18:40:22.810Z,29.90
2023-04-19T18:42:51.474Z,26.88
2023-04-19T18:45:26.287Z,29.67
2023-04-19T18:49:00.000Z,23.08
2023-04-19T18:52:39.466Z,25.83
2023-04-19T18:55:08.078Z,30.70
2023-04-19T18:57:43.798Z,21.55
2023-04-19T19:00:16.104Z,30.25
2023-04-19T19:02:52.883Z,36.78
2023-04-19T19:05:21.744Z,22.08
2023-04-19T19:07:50.758Z,30.05
2023-04-19T19:10:54.227Z,25.58
2023-04-19T19:13:14.877Z,23.25
2023-04-19T19:15:44.203Z,28.45
2023-04-19T19:18:14.805Z,20.70
2023-04-19T19:20:53.736Z,23.30
2023-04-19T19:23:35.426Z,22.30
2023-04-19T19:26:18.861Z,30.45
2023-04-19T19:28:47.802Z,27.13
2023-04-19T19:31:16.321Z,26.58
2023-04-19T19:34:04.244Z,37.47
2023-04-19T19:36:40.645Z,18.73
2023-04-19T19:39:08.615Z,27.17
2023-04-19T19:42:04.634Z,26.27
2023-04-19T19:44:25.999Z,19.95
2023-04-19T19:46:53.970Z,33.85
2023-04-19T19:49:29.021Z,29.25
2023-04-19T19:52:03.281Z,29.90
2023-04-19T19:55:44.854Z,26.15
2023-04-19T19:58:39.229Z,34.60
2023-04-19T20:01:03.589Z,31.05
2023-04-19T20:03:37.405Z,27.90
2023-04-19T20:08:43.693Z,27.00
2023-04-19T20:11:19.571Z,35.30
2023-04-19T20:13:47.898Z,19.17
2023-04-19T20:16:18.409Z,24.90
2023-04-19T20:18:50.233Z,29.60
2023-04-19T20:21:19.822Z,20.08
2023-04-19T20:23:49.829Z,26.02
2023-04-19T20:26:18.667Z,37.50
2023-04-19T20:28:46.625Z,28.42
2023-04-19T20:31:16.053Z,27.92
2023-04-19T20:33:46.207Z,27.88
2023-04-19T20:36:14.674Z,34.70
2023-04-19T20:38:43.101Z,21.52
2023-04-19T20:41:18.352Z,22.98
2023-04-19T20:48:28.813Z,24.73
2023-04-19T20:52:37.020Z,21.98
2023-04-19T20:55:09.308Z,25.15
2023-04-19T20:57:37.460Z,24.75
2023-04-19T21:00:09.061Z,26.83
2023-04-19T21:02:38.886Z,29.25
2023-04-19T21:05:07.265Z,20.40
2023-04-19T21:07:35.614Z,25.52
2023-04-19T21:10:07.024Z,29.52
2023-04-19T21:12:38.724Z,25.00
2023-04-19T21:15:07.323Z,28.15
2023-04-19T21:17:36.182Z,25.45
2023-04-19T21:20:11.991Z,29.50
2023-04-19T21:22:41.266Z,19.95
2023-04-19T21:25:10.567Z,27.50
2023-04-19T21:27:39.500Z,28.85
2023-04-19T21:30:09.426Z,27.17
2023-04-19T21:32:37.623Z,31.75
2023-04-19T21:35:07.519Z,28.67
2023-04-19T21:37:36.851Z,31.05
2023-04-19T21:40:09.323Z,26.65
2023-04-19T21:42:38.504Z,36.17
2023-04-19T21:45:07.289Z,28.20
2023-04-19T21:47:36.744Z,26.40
2023-04-19T21:50:05.467Z,31.02
2023-04-19T21:52:33.627Z,32.10
2023-04-19T21:55:01.736Z,30.25
2023-04-19T21:57:31.139Z,32.83
2023-04-19T22:00:00.738Z,30.02
2023-04-19T22:02:28.986Z,39.53
2023-04-19T22:05:00.420Z,26.42
2023-04-19T22:07:31.114Z,31.05
2023-04-19T22:10:01.384Z,29.05
2023-04-19T22:12:29.450Z,36.45
2023-04-19T22:14:58.251Z,27.77
2023-04-19T22:17:27.850Z,35.50
2023-04-19T22:19:55.932Z,27.13
2023-04-19T22:22:24.398Z,24.83
2023-04-19T22:24:56.989Z,29.13
2023-04-19T22:27:28.969Z,34.03
2023-04-19T22:29:56.805Z,29.23
2023-04-19T22:32:26.041Z,27.88
2023-04-19T22:34:56.999Z,31.45
2023-04-19T22:37:25.203Z,38.15
2023-04-19T22:39:53.444Z,33.30
2023-04-19T22:42:21.293Z,28.83
2023-04-19T22:44:49.856Z,26.92
2023-04-19T22:47:18.276Z,28.10
2023-04-19T22:49:46.862Z,35.80
2023-04-19T22:52:14.911Z,34.78
2023-04-19T22:54:42.972Z,39.78
2023-04-19T22:57:12.274Z,30.20
2023-04-19T22:59:40.555Z,29.13
2023-04-19T23:02:08.836Z,29.75
2023-04-19T23:04:38.142Z,30.60
2023-04-19T23:07:07.208Z,27.08
2023-04-19T23:09:39.396Z,37.20
2023-04-19T23:12:08.583Z,21.50
2023-04-19T23:14:38.892Z,23.35
2023-04-19T23:17:08.576Z,25.95
2023-04-19T23:19:37.874Z,33.30
2023-04-19T23:22:07.036Z,33.10
2023-04-19T23:24:38.997Z,35.60
2023-04-19T23:27:07.122Z,36.60
2023-04-19T23:29:35.253Z,37.60
2023-04-19T23:32:03.269Z,23.08
2023-04-19T23:34:31.510Z,40.40
2023-04-19T23:36:59.774Z,39.33
2023-04-19T23:39:27.735Z,27.27
2023-04-19T23:41:56.538Z,31.65
2023-04-19T23:44:28.588Z,23.80
2023-04-19T23:46:56.942Z,22.17
2023-04-19T23:49:25.184Z,30.02
2023-04-19T23:51:53.159Z,34.20
2023-04-19T23:54:22.709Z,28.42
2023-04-19T23:56:50.802Z,30.13
2023-04-19T23:59:19.536Z,28.40
